Time;durP1;ratioP1;P1;durP2;ratioP2;P2;SDS_P1;SDS_P2;PMS_P1;PMS_P2;Temp;Humidity;BMP_temperature;BMP_pressure;BME280_temperature;BME280_humidity;BME280_pressure;Samples;Min_cycle;Max_cycle;Signal;HPM_P1;HPM_P2
2023/02/20 00:00:24;;;;;;;5.60;2.65;;;10.50;99.90;;;;;;10179967;28;20047;-71
2023/02/20 00:05:15;;;;;;;4.30;1.60;;;10.60;99.90;;;;;;10169396;28;20031;-70
2023/02/20 00:10:07;;;;;;;5.85;2.13;;;10.50;99.90;;;;;;10181167;28;20032;-68
2023/02/20 00:14:58;;;;;;;4.93;2.22;;;10.50;99.90;;;;;;10163507;28;20135;-69
2023/02/20 00:19:48;;;;;;;3.92;1.95;;;10.40;99.90;;;;;;10181278;28;20472;-69
2023/02/20 00:24:39;;;;;;;4.05;2.38;;;10.40;99.90;;;;;;10164041;28;20016;-69
2023/02/20 00:29:30;;;;;;;9.57;2.30;;;10.30;99.90;;;;;;10180504;28;20036;-70
2023/02/20 00:34:22;;;;;;;6.38;2.83;;;10.20;99.90;;;;;;10180875;28;20032;-70
2023/02/20 00:39:13;;;;;;;5.18;2.03;;;10.20;99.90;;;;;;10180942;28;20039;-69
2023/02/20 00:44:04;;;;;;;3.83;2.70;;;10.10;99.90;;;;;;10169192;28;20552;-71
2023/02/20 00:48:54;;;;;;;3.33;1.95;;;10.10;99.90;;;;;;10157653;28;20260;-70
2023/02/20 00:53:45;;;;;;;5.55;2.35;;;10.00;99.90;;;;;;10179376;28;20020;-70
2023/02/20 00:58:36;;;;;;;4.43;2.45;;;10.00;99.90;;;;;;10178724;28;20175;-69
2023/02/20 01:03:26;;;;;;;3.72;1.90;;;10.00;99.90;;;;;;10179801;28;20020;-69
2023/02/20 01:08:17;;;;;;;3.88;1.63;;;10.00;99.90;;;;;;10159306;28;20074;-70
2023/02/20 01:13:08;;;;;;;4.18;1.85;;;10.00;99.90;;;;;;10168596;28;20039;-69
2023/02/20 01:17:58;;;;;;;6.72;1.95;;;10.00;99.90;;;;;;10174340;28;20082;-69
2023/02/20 01:22:49;;;;;;;4.10;2.30;;;10.00;99.90;;;;;;10157343;28;20530;-69
2023/02/20 01:27:40;;;;;;;4.10;2.90;;;10.10;99.90;;;;;;10178473;28;20672;-70
2023/02/20 01:32:31;;;;;;;5.03;2.30;;;10.00;99.90;;;;;;10179838;28;20027;-69
2023/02/20 01:37:22;;;;;;;3.63;1.92;;;10.00;99.90;;;;;;10178869;28;20020;-69
2023/02/20 01:42:17;;;;;;;6.40;2.55;;;10.00;99.90;;;;;;10165911;28;20035;-70
2023/02/20 01:47:14;;;;;;;3.05;2.17;;;9.90;99.90;;;;;;10166120;28;20282;-69
2023/02/20 01:52:29;;;;;;;5.68;2.33;;;9.80;99.90;;;;;;10176662;28;20040;-69
2023/02/20 01:57:23;;;;;;;4.13;1.88;;;9.70;99.90;;;;;;10170474;28;20398;-69
2023/02/20 02:02:14;;;;;;;5.13;2.20;;;9.60;99.90;;;;;;10165696;28;20024;-71
2023/02/20 02:07:05;;;;;;;7.18;2.47;;;9.50;99.90;;;;;;10175582;28;20414;-70
2023/02/20 02:11:56;;;;;;;3.33;1.83;;;9.40;99.90;;;;;;10184078;28;20028;-71
2023/02/20 02:16:57;;;;;;;3.83;2.22;;;9.40;99.90;;;;;;10180113;28;20020;-70
2023/02/20 02:22:04;;;;;;;4.70;2.40;;;9.40;99.90;;;;;;10175543;28;20051;-69
2023/02/20 02:27:14;;;;;;;4.57;2.17;;;9.40;99.90;;;;;;10162060;28;20039;-69
2023/02/20 02:32:27;;;;;;;4.88;1.98;;;9.30;99.90;;;;;;10179149;28;20047;-69
2023/02/20 02:37:50;;;;;;;9.90;3.42;;;9.30;99.90;;;;;;10182036;28;20028;-69
2023/02/20 02:43:08;;;;;;;4.70;2.20;;;9.20;99.90;;;;;;10180294;28;20050;-69
2023/02/20 02:48:12;;;;;;;4.28;2.47;;;9.20;99.90;;;;;;10169681;28;20052;-70
2023/02/20 02:53:07;;;;;;;5.55;2.63;;;9.10;99.90;;;;;;10149202;28;20028;-70
2023/02/20 02:57:57;;;;;;;7.30;2.15;;;9.20;99.90;;;;;;10183977;28;20186;-69
2023/02/20 03:03:10;;;;;;;2.35;1.42;;;9.10;99.90;;;;;;10184379;28;20183;-70
2023/02/20 03:08:01;;;;;;;5.80;2.28;;;9.10;99.90;;;;;;10182534;28;20118;-68
2023/02/20 03:12:53;;;;;;;4.18;2.10;;;9.00;99.90;;;;;;10172952;28;20111;-69
2023/02/20 03:17:53;;;;;;;4.25;2.25;;;9.10;99.90;;;;;;10177522;28;20032;-70
2023/02/20 03:22:54;;;;;;;6.53;2.25;;;9.00;99.90;;;;;;10159197;28;20535;-70
2023/02/20 03:27:58;;;;;;;8.68;3.95;;;9.00;99.90;;;;;;10160219;28;20039;-69
2023/02/20 03:43:20;;;;;;;3.63;2.75;;;8.90;99.90;;;;;;10159112;28;20067;-69
2023/02/20 03:48:18;;;;;;;4.87;2.20;;;8.80;99.90;;;;;;10158405;28;20056;-69
2023/02/20 03:53:09;;;;;;;3.25;2.40;;;8.80;99.90;;;;;;10179611;28;20021;-70
2023/02/20 03:58:03;;;;;;;6.15;1.80;;;8.70;99.90;;;;;;10181690;28;20543;-69
2023/02/20 04:02:59;;;;;;;5.00;1.75;;;8.70;99.90;;;;;;10167877;28;20296;-69
2023/02/20 04:08:00;;;;;;;4.13;2.70;;;8.60;99.90;;;;;;10150031;28;20123;-68
2023/02/20 04:12:52;;;;;;;6.07;2.53;;;8.50;99.90;;;;;;10165426;28;20040;-69
2023/02/20 04:17:51;;;;;;;4.68;2.17;;;8.50;99.90;;;;;;10163372;28;20037;-68
2023/02/20 04:22:45;;;;;;;4.60;2.65;;;8.50;99.90;;;;;;10156748;28;20084;-69
2023/02/20 04:27:36;;;;;;;5.10;2.53;;;8.40;99.90;;;;;;10180592;28;20093;-70
2023/02/20 04:32:27;;;;;;;4.07;2.30;;;8.40;99.90;;;;;;10162909;28;20478;-68
2023/02/20 04:37:19;;;;;;;8.38;3.30;;;8.30;99.90;;;;;;10162561;28;20020;-70
2023/02/20 04:42:09;;;;;;;3.72;2.63;;;8.30;99.90;;;;;;10179780;28;20020;-69
2023/02/20 04:47:04;;;;;;;5.25;2.13;;;8.20;99.90;;;;;;10167287;28;20043;-68
2023/02/20 04:51:55;;;;;;;9.57;3.45;;;8.20;99.90;;;;;;10161521;28;20024;-69
2023/02/20 04:56:46;;;;;;;5.70;2.50;;;8.20;99.90;;;;;;10179335;28;20027;-69
2023/02/20 05:01:36;;;;;;;4.90;2.80;;;8.20;99.90;;;;;;10166594;28;20025;-67
2023/02/20 05:06:27;;;;;;;5.47;2.72;;;8.00;99.90;;;;;;10160649;28;20401;-69
2023/02/20 05:11:18;;;;;;;5.68;2.42;;;7.90;99.90;;;;;;10150009;28;20028;-68
2023/02/20 05:16:09;;;;;;;6.47;2.90;;;7.90;99.90;;;;;;10153131;28;20347;-69
2023/02/20 05:26:10;;;;;;;3.30;2.53;;;7.70;99.90;;;;;;10156118;28;20127;-69
2023/02/20 05:31:01;;;;;;;9.05;3.30;;;7.70;99.90;;;;;;10172800;28;20064;-68
2023/02/20 05:35:51;;;;;;;5.32;3.88;;;7.80;99.90;;;;;;10158944;28;20087;-69
2023/02/20 05:40:42;;;;;;;7.32;3.85;;;7.70;99.90;;;;;;10162965;28;20097;-67
2023/02/20 05:45:33;;;;;;;4.20;2.90;;;7.80;99.90;;;;;;10170419;28;20024;-69
2023/02/20 05:50:23;;;;;;;6.03;2.83;;;7.70;99.90;;;;;;10173666;28;20227;-68
2023/02/20 05:55:14;;;;;;;7.28;2.55;;;7.70;99.90;;;;;;10178047;28;20159;-68
2023/02/20 06:00:05;;;;;;;6.88;3.20;;;7.70;99.90;;;;;;10177773;28;20036;-68
2023/02/20 06:04:56;;;;;;;7.00;2.85;;;7.70;99.90;;;;;;10171922;28;20020;-70
2023/02/20 06:09:48;;;;;;;7.72;4.22;;;7.70;99.90;;;;;;10143534;28;20612;-68
2023/02/20 06:14:39;;;;;;;7.25;2.97;;;7.70;99.90;;;;;;10151950;28;20020;-68
2023/02/20 06:19:29;;;;;;;3.75;2.53;;;7.60;99.90;;;;;;10156175;28;20122;-68
2023/02/20 06:24:21;;;;;;;8.50;3.58;;;7.60;99.90;;;;;;10156112;28;20024;-69
2023/02/20 06:29:13;;;;;;;8.00;3.53;;;7.60;99.90;;;;;;10177238;28;20332;-68
2023/02/20 06:34:06;;;;;;;6.15;3.58;;;7.60;99.90;;;;;;10172205;28;20016;-67
2023/02/20 06:38:58;;;;;;;7.63;3.88;;;7.60;99.90;;;;;;10177805;28;20032;-67
2023/02/20 06:43:49;;;;;;;9.32;3.70;;;7.50;99.90;;;;;;10168542;28;20518;-67
2023/02/20 06:48:47;;;;;;;5.65;3.47;;;7.50;99.90;;;;;;10172856;28;20237;-67
2023/02/20 06:53:41;;;;;;;5.40;3.85;;;7.50;99.90;;;;;;10158682;28;20028;-68
2023/02/20 06:58:31;;;;;;;8.50;3.17;;;7.50;99.90;;;;;;10182444;28;20220;-67
2023/02/20 07:03:22;;;;;;;8.95;3.58;;;7.50;99.90;;;;;;10171285;28;20349;-69
2023/02/20 07:08:13;;;;;;;7.82;3.30;;;7.60;99.90;;;;;;10184214;28;20092;-67
2023/02/20 07:13:05;;;;;;;5.22;3.30;;;7.60;99.90;;;;;;10172080;28;20032;-66
2023/02/20 07:17:55;;;;;;;7.32;3.30;;;7.70;99.90;;;;;;10166737;28;20424;-66
2023/02/20 07:22:53;;;;;;;6.45;3.75;;;7.80;99.90;;;;;;10162441;28;20032;-66
2023/02/20 07:27:43;;;;;;;6.68;3.60;;;7.80;99.90;;;;;;10176780;28;20037;-66
2023/02/20 07:32:34;;;;;;;6.63;3.78;;;7.80;99.90;;;;;;10153942;28;20422;-66
2023/02/20 07:37:25;;;;;;;6.45;3.50;;;7.80;99.90;;;;;;10159730;28;20036;-70
2023/02/20 07:42:17;;;;;;;8.05;3.80;;;7.80;99.90;;;;;;10142615;28;20029;-69
2023/02/20 07:47:07;;;;;;;8.05;3.95;;;7.90;99.90;;;;;;10141219;28;20034;-68
2023/02/20 07:51:58;;;;;;;7.18;3.45;;;7.90;99.90;;;;;;10145570;28;20016;-65
2023/02/20 07:56:49;;;;;;;6.43;3.70;;;7.90;99.90;;;;;;10142330;28;20020;-67
2023/02/20 08:01:39;;;;;;;7.78;3.38;;;8.00;99.90;;;;;;10144112;28;20020;-69
2023/02/20 08:06:30;;;;;;;6.18;3.33;;;8.10;99.90;;;;;;10144181;28;20417;-62
2023/02/20 08:11:22;;;;;;;6.28;3.63;;;8.20;99.90;;;;;;10141894;28;20032;-67
2023/02/20 08:16:13;;;;;;;6.15;3.90;;;8.30;99.90;;;;;;10142670;28;20043;-64
2023/02/20 08:21:04;;;;;;;7.07;3.97;;;8.50;99.90;;;;;;10144392;28;20013;-66
2023/02/20 08:25:54;;;;;;;7.07;3.60;;;8.70;99.90;;;;;;10143873;28;20013;-66
2023/02/20 08:30:45;;;;;;;6.20;4.03;;;8.60;99.90;;;;;;10155954;28;20513;-66
2023/02/20 08:35:36;;;;;;;5.78;4.10;;;8.70;99.90;;;;;;10180031;28;20103;-69
2023/02/20 08:40:27;;;;;;;5.45;3.47;;;8.70;99.90;;;;;;10159898;28;20400;-65
2023/02/20 08:45:18;;;;;;;8.75;3.90;;;8.90;99.90;;;;;;10121387;28;20040;-67
2023/02/20 08:50:09;;;;;;;7.63;4.10;;;8.90;99.90;;;;;;10122032;28;20063;-68
2023/02/20 08:54:59;;;;;;;6.60;4.13;;;9.00;99.90;;;;;;10111876;28;20047;-68
2023/02/20 08:59:50;;;;;;;8.15;4.97;;;9.10;99.90;;;;;;10118983;28;20690;-68
2023/02/20 09:04:45;;;;;;;7.18;3.88;;;9.00;99.90;;;;;;10142344;28;20083;-70
2023/02/20 09:09:36;;;;;;;10.10;3.67;;;9.00;99.90;;;;;;10140416;28;20050;-70
2023/02/20 09:14:26;;;;;;;5.45;3.45;;;9.00;99.90;;;;;;10139856;28;20025;-69
2023/02/20 09:19:17;;;;;;;4.63;2.95;;;9.10;99.90;;;;;;10146914;28;20032;-69
2023/02/20 09:24:09;;;;;;;7.07;4.28;;;9.30;99.90;;;;;;10140121;28;20035;-65
2023/02/20 09:29:00;;;;;;;9.98;3.83;;;9.50;99.90;;;;;;10144212;28;20044;-70
2023/02/20 09:33:51;;;;;;;6.07;3.00;;;9.80;99.90;;;;;;10138701;28;20056;-71
2023/02/20 09:38:41;;;;;;;6.90;3.30;;;9.80;99.90;;;;;;10141093;28;20021;-67
2023/02/20 09:43:54;;;;;;;5.72;3.25;;;9.90;99.90;;;;;;10140525;28;20351;-69
2023/02/20 09:49:06;;;;;;;5.10;3.17;;;10.10;99.90;;;;;;10135994;28;20050;-68
2023/02/20 09:54:15;;;;;;;8.65;3.50;;;10.40;99.90;;;;;;10140450;28;20016;-69
2023/02/20 09:59:19;;;;;;;6.82;3.15;;;10.60;99.90;;;;;;10137799;28;20364;-69
2023/02/20 10:04:16;;;;;;;9.40;3.15;;;10.60;99.90;;;;;;10140432;28;20383;-66
2023/02/20 10:09:11;;;;;;;6.72;3.47;;;10.80;99.90;;;;;;10120882;28;20048;-63
2023/02/20 10:14:19;;;;;;;4.93;2.90;;;10.90;99.90;;;;;;10132064;28;20012;-74
2023/02/20 10:19:14;;;;;;;5.03;2.53;;;11.10;99.90;;;;;;10139278;28;20091;-62
2023/02/20 10:24:41;;;;;;;5.72;2.30;;;11.30;99.90;;;;;;10135550;28;20027;-69
2023/02/20 10:29:34;;;;;;;4.07;2.42;;;11.40;99.90;;;;;;10141247;28;20037;-66
2023/02/20 10:34:40;;;;;;;5.93;2.25;;;11.50;99.90;;;;;;10152636;28;20008;-61
2023/02/20 10:39:33;;;;;;;5.03;2.60;;;11.50;99.90;;;;;;10147995;28;20040;-64
2023/02/20 10:44:39;;;;;;;4.25;1.80;;;11.70;99.90;;;;;;10145446;28;20033;-63
2023/02/20 10:49:47;;;;;;;4.25;2.28;;;11.80;99.90;;;;;;10148599;28;20040;-60
2023/02/20 10:54:43;;;;;;;3.17;2.38;;;12.00;99.90;;;;;;10140636;28;20016;-63
2023/02/20 10:59:43;;;;;;;4.40;2.35;;;12.10;99.90;;;;;;10141596;28;20025;-62
2023/02/20 11:04:38;;;;;;;4.00;2.17;;;12.10;99.90;;;;;;10144265;28;20499;-64
2023/02/20 11:09:29;;;;;;;3.63;2.00;;;12.20;99.90;;;;;;10129630;28;20493;-63
2023/02/20 11:14:32;;;;;;;4.28;1.42;;;12.30;99.90;;;;;;10148414;28;20259;-63
2023/02/20 11:19:43;;;;;;;4.28;1.77;;;12.40;99.90;;;;;;10128006;28;20029;-63
2023/02/20 11:24:44;;;;;;;6.00;2.20;;;12.50;99.90;;;;;;10156271;28;20037;-63
2023/02/20 11:30:18;;;;;;;2.20;1.55;;;12.50;99.90;;;;;;10160125;28;20032;-62
2023/02/20 11:35:18;;;;;;;3.72;1.70;;;12.60;99.90;;;;;;10101458;28;20399;-66
2023/02/20 11:40:32;;;;;;;2.90;2.40;;;12.70;99.90;;;;;;10172618;28;20475;-64
2023/02/20 11:45:28;;;;;;;6.00;3.22;;;12.80;99.90;;;;;;10134109;28;20028;-64
2023/02/20 11:50:19;;;;;;;4.78;1.90;;;13.00;99.90;;;;;;10158525;28;20050;-64
2023/02/20 11:55:22;;;;;;;4.63;2.22;;;13.00;99.90;;;;;;10157223;28;20097;-65
2023/02/20 12:00:18;;;;;;;8.32;3.42;;;13.00;99.90;;;;;;10161766;28;20029;-64
2023/02/20 12:05:13;;;;;;;3.72;2.75;;;13.00;99.90;;;;;;10161781;28;20020;-64
2023/02/20 12:10:22;;;;;;;3.85;1.83;;;13.30;99.90;;;;;;10156253;28;20039;-61
2023/02/20 12:15:19;;;;;;;7.47;3.33;;;13.50;99.90;;;;;;10153200;28;20116;-63
2023/02/20 12:20:19;;;;;;;5.28;2.58;;;13.60;99.90;;;;;;10144725;28;20035;-61
2023/02/20 12:25:30;;;;;;;3.40;2.08;;;13.70;99.90;;;;;;10137748;28;20478;-66
2023/02/20 12:30:24;;;;;;;4.88;2.42;;;13.80;99.90;;;;;;10145167;28;20368;-63
2023/02/20 12:35:35;;;;;;;7.45;2.92;;;14.00;99.90;;;;;;10144098;28;20031;-66
2023/02/20 12:40:48;;;;;;;4.72;2.53;;;14.20;99.90;;;;;;10146185;28;20016;-65
2023/02/20 12:45:59;;;;;;;7.88;2.85;;;14.30;99.90;;;;;;10124682;28;20055;-64
2023/02/20 12:51:00;;;;;;;7.10;3.03;;;14.40;99.90;;;;;;10145138;28;20497;-66
2023/02/20 12:56:17;;;;;;;5.40;2.58;;;14.60;99.90;;;;;;10133932;28;20050;-68
2023/02/20 13:01:12;;;;;;;4.43;2.28;;;15.10;99.90;;;;;;10156863;28;20036;-65
2023/02/20 13:06:04;;;;;;;5.88;2.45;;;15.20;99.90;;;;;;10165439;28;20048;-63
2023/02/20 13:10:58;;;;;;;4.75;2.38;;;15.60;99.90;;;;;;10149172;28;20043;-63
2023/02/20 13:15:56;;;;;;;6.30;2.70;;;16.00;99.90;;;;;;10135582;28;20110;-64
2023/02/20 13:20:51;;;;;;;6.15;2.22;;;16.40;99.90;;;;;;10151107;28;20043;-64
2023/02/20 13:25:49;;;;;;;6.13;2.30;;;16.80;99.90;;;;;;10158819;28;20106;-65
2023/02/20 13:30:40;;;;;;;4.20;1.90;;;16.70;99.90;;;;;;10142650;28;20037;-61
2023/02/20 13:35:33;;;;;;;6.07;2.10;;;17.10;99.90;;;;;;10147133;28;20543;-65
2023/02/20 13:40:27;;;;;;;6.25;1.90;;;17.30;99.90;;;;;;10162963;28;20032;-64
2023/02/20 13:45:41;;;;;;;5.57;2.50;;;17.60;99.90;;;;;;10148518;28;20028;-65
2023/02/20 13:50:32;;;;;;;3.80;1.73;;;18.00;99.90;;;;;;10148620;28;20044;-64
2023/02/20 13:55:25;;;;;;;4.25;2.25;;;18.20;99.90;;;;;;10155800;28;20029;-64
2023/02/20 14:00:40;;;;;;;4.57;2.42;;;18.70;99.90;;;;;;10156184;28;20035;-65
2023/02/20 14:05:31;;;;;;;4.10;2.17;;;19.30;99.90;;;;;;10156444;28;20036;-63
2023/02/20 14:10:37;;;;;;;4.05;1.77;;;19.50;99.80;;;;;;10156426;28;20537;-65
2023/02/20 14:15:31;;;;;;;3.45;1.90;;;20.20;98.90;;;;;;10170850;28;20543;-63
2023/02/20 14:20:33;;;;;;;4.45;1.80;;;20.30;98.30;;;;;;10162860;28;20509;-66
2023/02/20 14:25:29;;;;;;;2.53;1.70;;;20.70;97.50;;;;;;10164409;28;20028;-64
2023/02/20 14:30:24;;;;;;;3.45;1.80;;;22.40;96.50;;;;;;10164870;28;20044;-64
2023/02/20 14:35:34;;;;;;;6.00;1.90;;;24.10;94.70;;;;;;10167746;28;20024;-62
2023/02/20 14:40:40;;;;;;;3.67;2.13;;;24.80;92.40;;;;;;10186287;28;20099;-63
2023/02/20 14:45:31;;;;;;;6.70;2.00;;;24.70;91.40;;;;;;10174855;28;20461;-65
2023/02/20 14:50:29;;;;;;;9.73;1.80;;;23.00;91.80;;;;;;10182328;28;20058;-64
2023/02/20 14:55:20;;;;;;;7.00;1.85;;;21.20;92.10;;;;;;10161033;28;20020;-64
2023/02/20 15:00:19;;;;;;;5.32;1.60;;;20.30;91.60;;;;;;10173589;28;20187;-64
2023/02/20 15:05:15;;;;;;;4.22;1.70;;;19.40;91.00;;;;;;10172304;28;20070;-64
2023/02/20 15:10:35;;;;;;;2.00;1.48;;;18.90;90.80;;;;;;10165461;28;20053;-63
2023/02/20 15:15:25;;;;;;;4.50;2.17;;;18.70;90.40;;;;;;10153142;28;20021;-65
2023/02/20 15:20:18;;;;;;;3.35;1.33;;;18.50;90.30;;;;;;10176250;28;20024;-65
2023/02/20 15:25:24;;;;;;;3.03;1.95;;;18.10;90.40;;;;;;10160744;28;20024;-63
2023/02/20 15:30:16;;;;;;;2.88;1.67;;;17.80;90.40;;;;;;10170296;28;20111;-63
2023/02/20 15:35:15;;;;;;;2.97;1.63;;;17.60;90.50;;;;;;10178789;28;20099;-64
2023/02/20 15:40:22;;;;;;;2.70;1.20;;;17.30;90.50;;;;;;10162228;28;20032;-64
2023/02/20 15:45:13;;;;;;;4.90;1.30;;;17.00;90.70;;;;;;10150887;28;20074;-66
2023/02/20 15:50:04;;;;;;;2.17;1.33;;;17.00;90.70;;;;;;10146493;28;20063;-66
2023/02/20 15:54:55;;;;;;;2.30;1.50;;;16.90;90.70;;;;;;10146831;28;20099;-63
2023/02/20 15:59:46;;;;;;;4.53;1.60;;;16.90;90.80;;;;;;10125716;28;20132;-63
2023/02/20 16:04:36;;;;;;;2.45;1.35;;;16.70;90.80;;;;;;10173880;28;20021;-60
2023/02/20 16:09:27;;;;;;;4.90;2.08;;;16.60;90.90;;;;;;10152549;28;20408;-64
2023/02/20 16:14:18;;;;;;;4.22;2.50;;;16.60;90.90;;;;;;10153328;28;20024;-62
2023/02/20 16:19:19;;;;;;;3.13;1.88;;;16.40;90.90;;;;;;10176355;28;20034;-68
2023/02/20 16:24:11;;;;;;;6.43;2.90;;;16.00;91.10;;;;;;10169432;28;20420;-67
2023/02/20 16:29:05;;;;;;;2.70;1.75;;;15.80;91.30;;;;;;10143612;28;20043;-65
2023/02/20 16:33:56;;;;;;;5.97;2.10;;;15.60;91.40;;;;;;10146231;28;20423;-63
2023/02/20 16:38:47;;;;;;;5.13;1.50;;;15.40;91.60;;;;;;10154828;28;20093;-64
2023/02/20 16:43:37;;;;;;;3.78;1.70;;;15.30;91.80;;;;;;10161429;28;20024;-67
2023/02/20 16:48:28;;;;;;;3.95;2.05;;;15.10;91.90;;;;;;10168133;28;20139;-71
2023/02/20 16:53:19;;;;;;;2.13;1.58;;;15.00;92.00;;;;;;10180332;28;20035;-69
2023/02/20 16:58:10;;;;;;;4.38;1.65;;;14.90;92.10;;;;;;10155161;28;20043;-67
2023/02/20 17:03:02;;;;;;;2.92;1.63;;;14.80;92.20;;;;;;10181924;28;20020;-68
2023/02/20 17:07:53;;;;;;;5.35;2.30;;;14.60;92.30;;;;;;10165965;28;20403;-67
2023/02/20 17:12:44;;;;;;;5.60;1.83;;;14.50;92.40;;;;;;10146772;28;20050;-69
2023/02/20 17:17:34;;;;;;;4.20;1.70;;;14.40;92.50;;;;;;10140696;28;20103;-71
2023/02/20 17:22:26;;;;;;;5.90;2.70;;;14.40;92.70;;;;;;10157381;28;20028;-64
2023/02/20 17:27:17;;;;;;;5.30;2.13;;;14.30;92.90;;;;;;10179611;28;20024;-64
2023/02/20 17:32:08;;;;;;;8.45;2.08;;;14.20;93.00;;;;;;10175760;28;20040;-63
2023/02/20 17:36:59;;;;;;;3.70;2.15;;;14.10;93.10;;;;;;10152205;28;20035;-66
2023/02/20 17:41:52;;;;;;;5.85;2.13;;;14.00;93.20;;;;;;10139418;28;20025;-64
2023/02/20 17:46:43;;;;;;;6.63;2.50;;;13.90;93.40;;;;;;10125224;28;20017;-69
2023/02/20 17:51:35;;;;;;;5.63;2.63;;;13.90;93.50;;;;;;10139115;28;20112;-70
2023/02/20 17:56:25;;;;;;;6.82;2.75;;;13.80;93.60;;;;;;10142009;28;20037;-68
2023/02/20 18:01:16;;;;;;;6.03;2.90;;;13.70;94.00;;;;;;10142458;28;20025;-66
2023/02/20 18:06:07;;;;;;;10.43;3.80;;;13.70;94.00;;;;;;10140811;28;20029;-64
2023/02/20 18:10:58;;;;;;;7.70;3.08;;;13.60;94.00;;;;;;10123387;28;20036;-66
2023/02/20 18:15:48;;;;;;;12.98;5.13;;;13.60;94.20;;;;;;10138528;28;20456;-66
2023/02/20 18:20:39;;;;;;;7.28;4.55;;;13.50;94.30;;;;;;10142001;28;20064;-64
2023/02/20 18:25:30;;;;;;;11.75;5.00;;;13.50;94.40;;;;;;10140767;28;20024;-64
2023/02/20 18:30:21;;;;;;;13.50;4.65;;;13.50;94.60;;;;;;10140935;28;20538;-64
2023/02/20 18:35:15;;;;;;;5.85;3.47;;;13.40;94.70;;;;;;10166791;28;20035;-66
2023/02/20 18:40:06;;;;;;;7.68;5.05;;;13.40;94.90;;;;;;10157213;28;20032;-66
2023/02/20 18:44:57;;;;;;;7.00;4.10;;;13.30;95.00;;;;;;10174233;28;20035;-65
2023/02/20 18:49:48;;;;;;;13.48;4.10;;;13.20;95.10;;;;;;10160293;28;20048;-65
2023/02/20 18:54:38;;;;;;;10.48;5.22;;;13.20;95.20;;;;;;10172507;28;20024;-64
2023/02/20 18:59:29;;;;;;;18.48;5.28;;;13.10;95.30;;;;;;10166858;28;20031;-66
2023/02/20 19:04:21;;;;;;;9.75;4.70;;;13.00;95.40;;;;;;10184930;28;20012;-65
2023/02/20 19:09:17;;;;;;;9.60;4.97;;;12.90;95.60;;;;;;10179528;28;20039;-68
2023/02/20 19:14:08;;;;;;;12.55;4.95;;;12.90;95.70;;;;;;10177423;28;20036;-67
2023/02/20 19:18:59;;;;;;;10.20;4.85;;;12.80;95.80;;;;;;10167834;28;20035;-68
2023/02/20 19:23:50;;;;;;;9.65;5.85;;;12.80;95.90;;;;;;10177678;28;20023;-67
2023/02/20 19:28:41;;;;;;;10.63;5.50;;;12.70;96.10;;;;;;10163855;28;20033;-65
2023/02/20 19:33:31;;;;;;;11.38;6.32;;;12.60;96.20;;;;;;10125780;28;20131;-68
2023/02/20 19:38:22;;;;;;;14.45;6.35;;;12.60;96.30;;;;;;10165063;28;20035;-68
2023/02/20 19:43:13;;;;;;;11.80;5.55;;;12.50;96.30;;;;;;10142264;28;20035;-67
2023/02/20 19:48:04;;;;;;;10.85;6.32;;;12.50;96.40;;;;;;10146564;28;20051;-66
2023/02/20 19:52:55;;;;;;;10.55;6.05;;;12.40;96.50;;;;;;10167433;28;20518;-67
2023/02/20 19:57:47;;;;;;;13.45;5.45;;;12.40;96.70;;;;;;10175725;28;20012;-66
2023/02/20 20:02:38;;;;;;;14.32;6.13;;;12.30;96.80;;;;;;10178666;28;20032;-67
2023/02/20 20:07:30;;;;;;;12.23;6.97;;;12.10;96.90;;;;;;10180657;28;20047;-68
2023/02/20 20:17:31;;;;;;;14.90;7.38;;;12.00;97.10;;;;;;10158054;28;20521;-68
2023/02/20 20:22:21;;;;;;;11.85;6.63;;;11.90;97.20;;;;;;10175963;28;20103;-68
2023/02/20 20:27:12;;;;;;;9.27;6.22;;;11.90;97.30;;;;;;10163465;28;20115;-67
2023/02/20 20:32:03;;;;;;;11.48;6.13;;;11.80;97.50;;;;;;10180546;28;20028;-66
2023/02/20 20:36:54;;;;;;;11.68;5.57;;;11.80;97.60;;;;;;10182283;28;20034;-66
2023/02/20 20:41:44;;;;;;;15.77;6.60;;;11.80;97.80;;;;;;10150188;28;20028;-65
2023/02/20 20:46:36;;;;;;;16.77;5.95;;;11.70;97.80;;;;;;10156461;28;20058;-67
2023/02/20 20:51:27;;;;;;;10.45;5.47;;;11.60;98.00;;;;;;10149934;28;20297;-67
2023/02/20 20:56:18;;;;;;;16.67;6.70;;;11.50;98.10;;;;;;10072313;22;20293;-64
2023/02/20 21:01:09;;;;;;;11.82;5.80;;;11.50;98.20;;;;;;10059841;28;20116;-64
2023/02/20 21:05:59;;;;;;;15.32;5.95;;;11.30;98.30;;;;;;10059566;28;20029;-64
2023/02/20 21:10:53;;;;;;;9.55;5.88;;;11.30;98.40;;;;;;10047361;28;20033;-64
2023/02/20 21:15:44;;;;;;;9.07;4.95;;;11.20;98.50;;;;;;10087645;28;20020;-64
2023/02/20 21:20:35;;;;;;;10.95;5.72;;;11.20;98.60;;;;;;10097864;28;20526;-65
2023/02/20 21:25:26;;;;;;;8.85;4.88;;;11.10;98.60;;;;;;10059456;28;20026;-65
2023/02/20 21:30:17;;;;;;;9.82;5.55;;;11.00;98.80;;;;;;10069600;28;20111;-65
2023/02/20 21:35:08;;;;;;;8.27;5.50;;;10.90;98.90;;;;;;10059391;28;20071;-65
2023/02/20 21:40:00;;;;;;;13.05;6.07;;;11.00;99.00;;;;;;10058640;28;20096;-64
2023/02/20 21:44:51;;;;;;;10.85;5.68;;;10.90;99.10;;;;;;10058844;28;20049;-65
2023/02/20 21:49:44;;;;;;;8.45;5.53;;;10.90;99.20;;;;;;10058544;28;20033;-64
2023/02/20 21:54:35;;;;;;;8.93;4.97;;;10.90;99.20;;;;;;10071065;28;20049;-63
